Time;durP1;ratioP1;P1;durP2;ratioP2;P2;SDS_P1;SDS_P2;PMS_P1;PMS_P2;Temp;Humidity;BMP_temperature;BMP_pressure;BME280_temperature;BME280_humidity;BME280_pressure;Samples;Min_cycle;Max_cycle;Signal;HPM_P1;HPM_P2
2022/01/28 00:04:53;;;;;;;11.30;1.52;;;;;;;;;;5068640;28;20468;-77
2022/01/28 00:07:19;;;;;;;12.82;1.40;;;;;;;;;;5068407;28;20561;-77
2022/01/28 00:09:46;;;;;;;13.45;1.98;;;;;;;;;;5067754;28;20051;-77
2022/01/28 00:12:13;;;;;;;20.98;2.63;;;;;;;;;;5067859;28;20051;-76
2022/01/28 00:38:37;;;;;;;18.20;1.90;;;;;;;;;;5071200;28;20052;-77
2022/01/28 00:41:03;;;;;;;24.90;2.47;;;;;;;;;;5071574;28;20129;-76
2022/01/28 00:43:29;;;;;;;22.08;2.40;;;;;;;;;;5071295;28;20397;-77
2022/01/28 00:45:56;;;;;;;23.38;2.90;;;;;;;;;;5071774;28;20123;-76
2022/01/28 00:48:22;;;;;;;26.00;2.75;;;;;;;;;;5071830;28;20121;-77
2022/01/28 00:50:48;;;;;;;21.88;3.08;;;;;;;;;;5071269;28;20033;-77
2022/01/28 00:53:14;;;;;;;17.73;2.88;;;;;;;;;;5071766;28;20182;-77
2022/01/28 00:55:40;;;;;;;20.58;2.60;;;;;;;;;;5071384;28;20502;-77
2022/01/28 00:58:06;;;;;;;19.13;2.78;;;;;;;;;;5071555;28;20053;-77
2022/01/28 01:00:32;;;;;;;20.02;3.17;;;;;;;;;;5071110;28;20502;-76
2022/01/28 01:02:58;;;;;;;17.63;2.30;;;;;;;;;;5071172;28;20040;-76
2022/01/28 01:05:24;;;;;;;16.83;2.58;;;;;;;;;;5071144;28;20149;-76
2022/01/28 01:07:51;;;;;;;23.20;2.80;;;;;;;;;;5054963;28;20079;-77
2022/01/28 01:10:17;;;;;;;25.88;2.72;;;;;;;;;;5038137;28;20044;-77
2022/01/28 01:12:46;;;;;;;25.92;3.10;;;;;;;;;;5070515;28;20127;-76
2022/01/28 01:15:16;;;;;;;18.63;2.38;;;;;;;;;;5038386;28;20070;-77
2022/01/28 01:17:54;;;;;;;28.15;3.35;;;;;;;;;;5054216;28;20447;-77
2022/01/28 01:20:38;;;;;;;29.25;3.00;;;;;;;;;;5070811;28;20096;-77
2022/01/28 01:23:13;;;;;;;25.65;3.28;;;;;;;;;;5071019;28;20044;-77
2022/01/28 01:26:30;;;;;;;33.50;2.95;;;;;;;;;;5070837;28;20051;-77
2022/01/28 01:28:32;;;;;;;20.75;2.70;;;;;;;;;;5063122;28;20044;-77
2022/01/28 01:30:59;;;;;;;28.92;3.03;;;;;;;;;;5070424;28;20040;-77
2022/01/28 01:33:27;;;;;;;21.05;2.50;;;;;;;;;;5053415;28;20128;-77
2022/01/28 01:35:53;;;;;;;22.40;3.30;;;;;;;;;;5071785;28;20565;-77
2022/01/28 01:38:24;;;;;;;23.08;2.70;;;;;;;;;;5070955;28;20478;-77
2022/01/28 01:40:54;;;;;;;28.55;3.03;;;;;;;;;;5070927;28;20048;-77
2022/01/28 01:46:08;;;;;;;24.20;3.05;;;;;;;;;;5050152;28;20128;-76
2022/01/28 01:54:05;;;;;;;23.00;3.15;;;;;;;;;;5070521;28;20048;-76
2022/01/28 01:56:31;;;;;;;23.60;2.97;;;;;;;;;;5053409;28;20439;-76
2022/01/28 01:58:57;;;;;;;25.50;4.15;;;;;;;;;;5053738;28;20075;-76
2022/01/28 02:01:24;;;;;;;23.92;2.83;;;;;;;;;;5070006;28;20044;-76
2022/01/28 02:03:50;;;;;;;17.92;2.30;;;;;;;;;;5069957;28;20102;-76
2022/01/28 02:06:18;;;;;;;20.00;2.85;;;;;;;;;;5053976;28;20138;-76
2022/01/28 02:08:44;;;;;;;20.38;2.88;;;;;;;;;;5069898;28;20143;-76
2022/01/28 02:11:10;;;;;;;15.57;2.35;;;;;;;;;;5069957;28;20044;-76
2022/01/28 02:13:38;;;;;;;22.88;2.72;;;;;;;;;;5053085;28;20049;-76
2022/01/28 02:16:04;;;;;;;26.15;3.25;;;;;;;;;;5071706;28;20123;-75
2022/01/28 02:18:30;;;;;;;28.30;2.83;;;;;;;;;;5071257;28;20480;-76
2022/01/28 02:21:05;;;;;;;19.67;2.60;;;;;;;;;;5053239;28;20508;-75
2022/01/28 02:23:31;;;;;;;20.60;2.90;;;;;;;;;;5069283;28;20114;-76
2022/01/28 02:25:59;;;;;;;20.73;2.58;;;;;;;;;;5069780;28;20048;-76
2022/01/28 02:28:27;;;;;;;18.77;2.70;;;;;;;;;;5069867;28;20411;-76
2022/01/28 02:30:53;;;;;;;21.05;2.95;;;;;;;;;;5069795;28;20040;-76
2022/01/28 02:33:22;;;;;;;24.27;2.95;;;;;;;;;;5069572;28;20052;-76
2022/01/28 02:35:49;;;;;;;19.42;2.10;;;;;;;;;;5069514;28;20139;-75
2022/01/28 02:38:17;;;;;;;21.52;2.85;;;;;;;;;;5069507;28;20055;-76
2022/01/28 02:41:01;;;;;;;16.15;1.73;;;;;;;;;;5069625;28;20562;-76
2022/01/28 02:45:56;;;;;;;26.30;3.28;;;;;;;;;;5069849;28;20045;-76
2022/01/28 02:48:28;;;;;;;14.25;2.35;;;;;;;;;;5069931;28;20052;-76
2022/01/28 02:51:06;;;;;;;15.23;2.25;;;;;;;;;;5069366;28;20051;-75
2022/01/28 02:53:44;;;;;;;21.52;2.40;;;;;;;;;;5068935;28;20091;-76
2022/01/28 02:56:17;;;;;;;18.83;2.20;;;;;;;;;;5069558;28;20052;-76
2022/01/28 02:58:44;;;;;;;22.85;2.35;;;;;;;;;;5051409;28;20044;-76
2022/01/28 03:01:15;;;;;;;17.60;3.45;;;;;;;;;;5064824;28;20528;-76
2022/01/28 03:03:44;;;;;;;14.13;1.73;;;;;;;;;;5067333;28;20565;-76
2022/01/28 03:06:11;;;;;;;12.63;1.60;;;;;;;;;;5068157;28;20058;-75
2022/01/28 03:08:38;;;;;;;10.15;1.38;;;;;;;;;;5068362;28;20079;-76
2022/01/28 03:16:30;;;;;;;16.90;1.80;;;;;;;;;;5068870;28;20500;-76
2022/01/28 03:19:19;;;;;;;18.80;2.78;;;;;;;;;;5068701;28;20123;-76
2022/01/28 03:21:54;;;;;;;18.77;2.30;;;;;;;;;;5068549;28;20393;-76
2022/01/28 03:24:20;;;;;;;20.73;2.72;;;;;;;;;;5053226;28;20578;-76
2022/01/28 03:26:50;;;;;;;13.07;1.90;;;;;;;;;;5068547;28;20044;-76
2022/01/28 03:29:16;;;;;;;15.13;2.30;;;;;;;;;;5068198;28;20040;-76
2022/01/28 03:31:42;;;;;;;16.58;2.08;;;;;;;;;;5068206;28;20152;-76
2022/01/28 03:34:08;;;;;;;13.05;1.48;;;;;;;;;;5068518;28;20045;-76
2022/01/28 03:36:35;;;;;;;15.48;1.83;;;;;;;;;;5051553;28;20491;-76
2022/01/28 03:39:01;;;;;;;16.63;2.10;;;;;;;;;;5051841;28;20123;-76
2022/01/28 03:41:27;;;;;;;14.23;2.08;;;;;;;;;;5068284;28;20044;-76
2022/01/28 03:43:58;;;;;;;22.58;2.83;;;;;;;;;;5068010;28;20074;-76
2022/01/28 03:46:25;;;;;;;21.20;2.67;;;;;;;;;;5069072;28;20127;-76
2022/01/28 03:48:52;;;;;;;17.17;2.47;;;;;;;;;;5051815;28;20045;-76
2022/01/28 03:51:18;;;;;;;19.98;2.55;;;;;;;;;;5068357;28;20530;-76
2022/01/28 03:53:44;;;;;;;18.45;2.80;;;;;;;;;;5068091;28;20055;-76
2022/01/28 03:56:10;;;;;;;15.45;2.58;;;;;;;;;;5068533;28;20079;-76
2022/01/28 03:58:36;;;;;;;18.25;2.30;;;;;;;;;;5050948;28;20048;-76
2022/01/28 04:01:07;;;;;;;23.00;2.25;;;;;;;;;;5068056;28;20407;-76
2022/01/28 04:11:30;;;;;;;19.98;2.47;;;;;;;;;;5067694;28;20040;-76
2022/01/28 04:13:59;;;;;;;19.63;2.50;;;;;;;;;;5051616;28;20044;-76
2022/01/28 04:16:33;;;;;;;19.80;2.45;;;;;;;;;;5051076;28;20037;-76
2022/01/28 04:19:03;;;;;;;16.75;2.40;;;;;;;;;;5067883;28;20050;-76
2022/01/28 04:21:30;;;;;;;15.98;2.15;;;;;;;;;;5067325;28;20095;-76
2022/01/28 04:23:57;;;;;;;16.80;2.58;;;;;;;;;;5067650;28;20121;-76
2022/01/28 04:26:23;;;;;;;20.02;2.95;;;;;;;;;;5069136;28;20076;-76
2022/01/28 04:28:49;;;;;;;17.38;2.70;;;;;;;;;;5034427;28;20488;-76
2022/01/28 04:31:15;;;;;;;23.75;3.53;;;;;;;;;;5051506;28;20508;-76
2022/01/28 04:33:41;;;;;;;18.48;2.85;;;;;;;;;;5067598;28;20074;-76
2022/01/28 04:36:10;;;;;;;14.55;2.50;;;;;;;;;;5068796;28;20094;-76
2022/01/28 04:38:48;;;;;;;15.38;2.63;;;;;;;;;;5051265;28;20045;-76
2022/01/28 04:41:43;;;;;;;18.10;2.50;;;;;;;;;;5067647;28;20131;-76
2022/01/28 04:44:13;;;;;;;20.83;2.85;;;;;;;;;;5066613;28;20497;-76
2022/01/28 04:46:58;;;;;;;19.10;2.08;;;;;;;;;;5067212;28;20388;-76
2022/01/28 04:49:37;;;;;;;19.73;2.58;;;;;;;;;;5067554;28;20099;-76
2022/01/28 04:57:39;;;;;;;13.20;2.35;;;;;;;;;;5067975;28;20052;-76
2022/01/28 05:06:34;;;;;;;20.30;2.42;;;;;;;;;;5066899;28;20049;-76
2022/01/28 05:11:06;;;;;;;22.80;2.42;;;;;;;;;;5067301;28;20067;-76
2022/01/28 05:26:52;;;;;;;17.17;2.92;;;;;;;;;;5037092;28;20597;-76
2022/01/28 05:29:18;;;;;;;18.90;3.03;;;;;;;;;;5070672;28;20545;-76
2022/01/28 05:31:44;;;;;;;15.18;2.55;;;;;;;;;;5053844;28;20039;-76
2022/01/28 05:34:10;;;;;;;18.50;2.50;;;;;;;;;;5054167;28;20045;-76
2022/01/28 05:36:36;;;;;;;17.90;2.30;;;;;;;;;;5070346;28;20040;-76
2022/01/28 05:39:02;;;;;;;18.73;2.25;;;;;;;;;;5070523;28;20045;-76
2022/01/28 05:41:28;;;;;;;20.05;2.72;;;;;;;;;;5053744;28;20060;-76
2022/01/28 05:43:55;;;;;;;19.02;2.78;;;;;;;;;;5054269;28;20047;-76
2022/01/28 05:46:21;;;;;;;19.55;2.95;;;;;;;;;;5070539;28;20130;-76
2022/01/28 05:48:47;;;;;;;23.30;2.92;;;;;;;;;;5070349;28;20052;-76
2022/01/28 05:51:13;;;;;;;20.13;3.03;;;;;;;;;;5054022;28;20528;-76
2022/01/28 05:53:39;;;;;;;18.67;2.78;;;;;;;;;;5053744;28;20403;-76
2022/01/28 05:56:05;;;;;;;23.83;2.45;;;;;;;;;;5071518;28;20385;-76
2022/01/28 05:58:31;;;;;;;22.75;2.80;;;;;;;;;;5069929;28;20428;-76
2022/01/28 06:00:57;;;;;;;25.08;3.30;;;;;;;;;;5071630;28;20040;-77
2022/01/28 06:03:24;;;;;;;16.92;2.70;;;;;;;;;;5053686;28;20055;-76
2022/01/28 06:05:50;;;;;;;20.13;2.28;;;;;;;;;;5070085;28;20381;-77
2022/01/28 06:08:16;;;;;;;19.17;3.67;;;;;;;;;;5070663;28;20396;-77
2022/01/28 06:10:42;;;;;;;26.08;3.55;;;;;;;;;;5069932;28;20551;-77
2022/01/28 06:13:09;;;;;;;25.42;2.85;;;;;;;;;;5070340;28;20056;-77
2022/01/28 06:15:35;;;;;;;26.08;2.95;;;;;;;;;;5069458;28;20055;-77
2022/01/28 06:18:01;;;;;;;22.35;3.40;;;;;;;;;;5070264;28;20542;-77
2022/01/28 06:20:30;;;;;;;21.25;3.08;;;;;;;;;;5053055;28;20044;-76
2022/01/28 06:22:57;;;;;;;31.67;3.58;;;;;;;;;;5069934;28;20052;-77
2022/01/28 06:25:23;;;;;;;19.83;3.30;;;;;;;;;;5070992;28;20112;-77
2022/01/28 06:27:52;;;;;;;20.55;3.08;;;;;;;;;;5069839;28;20068;-77
2022/01/28 06:30:19;;;;;;;20.02;2.83;;;;;;;;;;5071265;28;20476;-77
2022/01/28 06:32:45;;;;;;;19.20;3.13;;;;;;;;;;5070007;28;20429;-77
2022/01/28 06:35:12;;;;;;;24.73;3.00;;;;;;;;;;5070142;28;20048;-77
2022/01/28 06:37:38;;;;;;;24.27;2.90;;;;;;;;;;5052437;28;20131;-77
2022/01/28 06:40:06;;;;;;;28.45;4.15;;;;;;;;;;5069490;28;20052;-76
2022/01/28 06:42:32;;;;;;;28.02;3.45;;;;;;;;;;5069111;28;20366;-77
2022/01/28 06:44:58;;;;;;;24.77;3.17;;;;;;;;;;5069727;28;20040;-76
2022/01/28 06:47:24;;;;;;;21.80;3.00;;;;;;;;;;5069441;28;20377;-77
2022/01/28 06:49:50;;;;;;;20.30;3.00;;;;;;;;;;5052406;28;20037;-77
2022/01/28 06:52:16;;;;;;;22.08;3.28;;;;;;;;;;5052875;28;20045;-77
2022/01/28 06:54:43;;;;;;;27.45;3.60;;;;;;;;;;5052403;28;20072;-77
2022/01/28 06:57:09;;;;;;;23.30;3.40;;;;;;;;;;5052958;28;20121;-77
2022/01/28 06:59:35;;;;;;;24.80;3.70;;;;;;;;;;5069038;28;20036;-77
2022/01/28 07:02:01;;;;;;;18.58;3.45;;;;;;;;;;5069112;28;20037;-77
2022/01/28 07:04:27;;;;;;;23.55;3.35;;;;;;;;;;5068849;28;20071;-77
2022/01/28 07:06:53;;;;;;;15.60;2.97;;;;;;;;;;5068196;28;20032;-77
2022/01/28 07:09:19;;;;;;;22.95;2.90;;;;;;;;;;5069461;28;20499;-77
2022/01/28 07:11:45;;;;;;;24.73;3.58;;;;;;;;;;5052256;28;20036;-76
2022/01/28 07:14:11;;;;;;;20.27;2.85;;;;;;;;;;5068766;28;20059;-77
2022/01/28 07:16:37;;;;;;;17.95;2.92;;;;;;;;;;5067743;28;20048;-76
2022/01/28 07:19:04;;;;;;;27.17;3.15;;;;;;;;;;5068703;28;20037;-77
2022/01/28 07:21:30;;;;;;;22.13;3.17;;;;;;;;;;5069377;28;20389;-77
2022/01/28 07:23:57;;;;;;;21.75;2.88;;;;;;;;;;5052150;28;20059;-77
2022/01/28 07:26:23;;;;;;;17.02;2.97;;;;;;;;;;5052275;28;20480;-77
2022/01/28 07:28:49;;;;;;;19.02;2.45;;;;;;;;;;5068681;28;20039;-77
2022/01/28 07:31:18;;;;;;;24.67;3.50;;;;;;;;;;5069015;28;20048;-77
2022/01/28 07:33:44;;;;;;;17.88;3.58;;;;;;;;;;5068198;28;20098;-77
2022/01/28 07:36:10;;;;;;;26.55;2.75;;;;;;;;;;5068614;28;20542;-77
2022/01/28 07:38:36;;;;;;;17.10;2.58;;;;;;;;;;5069212;28;20121;-77
2022/01/28 07:41:02;;;;;;;16.23;2.38;;;;;;;;;;5069976;28;20377;-77
2022/01/28 07:43:28;;;;;;;16.33;2.70;;;;;;;;;;5051460;28;20044;-77
2022/01/28 07:45:55;;;;;;;23.02;3.05;;;;;;;;;;5068502;28;20126;-77
2022/01/28 07:48:21;;;;;;;26.83;3.83;;;;;;;;;;5068364;28;20044;-77
2022/01/28 07:50:47;;;;;;;17.35;3.40;;;;;;;;;;5067467;28;20040;-77
2022/01/28 07:53:16;;;;;;;20.95;2.80;;;;;;;;;;5068282;28;20101;-77
2022/01/28 07:55:42;;;;;;;27.55;3.08;;;;;;;;;;5051989;28;20044;-77
2022/01/28 07:58:09;;;;;;;23.58;2.95;;;;;;;;;;5068154;28;20044;-77
2022/01/28 08:00:35;;;;;;;25.95;3.42;;;;;;;;;;5069107;28;20102;-77
2022/01/28 08:03:01;;;;;;;22.30;2.72;;;;;;;;;;5067993;28;20078;-77
2022/01/28 08:05:27;;;;;;;21.23;2.95;;;;;;;;;;5051352;28;20052;-77
2022/01/28 08:07:53;;;;;;;28.55;3.30;;;;;;;;;;5050929;28;20094;-77
2022/01/28 08:10:20;;;;;;;24.75;3.83;;;;;;;;;;5068174;28;20044;-77
2022/01/28 08:12:51;;;;;;;23.92;3.63;;;;;;;;;;5067803;28;20044;-77
2022/01/28 08:15:17;;;;;;;19.77;2.83;;;;;;;;;;5068597;28;20056;-77
2022/01/28 08:17:44;;;;;;;19.08;3.30;;;;;;;;;;5051038;28;20052;-77
2022/01/28 08:20:10;;;;;;;25.55;3.70;;;;;;;;;;5050906;28;20090;-77
2022/01/28 08:22:47;;;;;;;24.17;3.33;;;;;;;;;;5068403;28;20121;-77
2022/01/28 08:25:13;;;;;;;27.33;3.80;;;;;;;;;;5068266;28;20135;-77
2022/01/28 08:27:41;;;;;;;19.60;3.42;;;;;;;;;;5067431;28;20056;-77
2022/01/28 08:30:08;;;;;;;15.73;2.63;;;;;;;;;;5067847;28;20105;-77
2022/01/28 08:32:34;;;;;;;16.58;2.75;;;;;;;;;;5067303;28;20146;-77
2022/01/28 08:35:00;;;;;;;19.20;4.57;;;;;;;;;;5067889;28;20049;-77
2022/01/28 08:37:26;;;;;;;24.17;5.85;;;;;;;;;;5068149;28;20041;-77
2022/01/28 08:39:53;;;;;;;36.33;8.82;;;;;;;;;;5067224;28;20044;-77
2022/01/28 08:42:19;;;;;;;34.30;8.93;;;;;;;;;;5068222;28;20488;-77
2022/01/28 08:44:45;;;;;;;35.13;9.77;;;;;;;;;;5051391;28;20476;-77
2022/01/28 08:47:11;;;;;;;39.75;10.82;;;;;;;;;;5050809;28;20059;-77
2022/01/28 08:49:37;;;;;;;43.88;11.38;;;;;;;;;;5067588;28;20041;-77
2022/01/28 08:52:04;;;;;;;42.05;12.45;;;;;;;;;;5067290;28;20048;-77
2022/01/28 08:54:30;;;;;;;63.05;20.25;;;;;;;;;;5068168;28;20137;-77
2022/01/28 08:56:56;;;;;;;103.75;34.17;;;;;;;;;;5072186;28;20177;-77
2022/01/28 08:59:22;;;;;;;105.70;37.97;;;;;;;;;;5071642;28;20048;-77
2022/01/28 09:01:48;;;;;;;100.35;31.77;;;;;;;;;;5070953;28;20149;-77
2022/01/28 09:04:14;;;;;;;82.20;26.55;;;;;;;;;;5071790;28;20055;-77
2022/01/28 09:06:40;;;;;;;74.95;23.70;;;;;;;;;;5071005;28;20080;-77
2022/01/28 09:09:07;;;;;;;61.38;19.42;;;;;;;;;;5071488;28;20070;-77
2022/01/28 09:11:46;;;;;;;53.60;17.48;;;;;;;;;;5071117;28;20119;-77
2022/01/28 09:14:13;;;;;;;42.92;13.80;;;;;;;;;;5071170;28;20098;-77
2022/01/28 09:16:40;;;;;;;44.85;12.35;;;;;;;;;;5071409;28;20084;-77
2022/01/28 09:19:06;;;;;;;43.22;13.25;;;;;;;;;;5070932;28;20081;-77
2022/01/28 09:21:33;;;;;;;38.22;11.23;;;;;;;;;;5053877;28;20622;-77
2022/01/28 09:23:59;;;;;;;36.90;10.02;;;;;;;;;;5070969;28;20080;-77
2022/01/28 09:26:25;;;;;;;30.27;7.28;;;;;;;;;;5071481;28;20038;-77
2022/01/28 09:28:51;;;;;;;26.23;5.55;;;;;;;;;;5070163;28;20044;-77
2022/01/28 09:31:17;;;;;;;22.80;3.95;;;;;;;;;;5071094;28;20423;-77
2022/01/28 09:33:43;;;;;;;20.70;4.32;;;;;;;;;;5070255;28;20082;-77
2022/01/28 09:36:10;;;;;;;24.95;3.83;;;;;;;;;;5071281;28;20512;-77
2022/01/28 09:38:36;;;;;;;21.33;3.00;;;;;;;;;;5070366;28;20041;-77
2022/01/28 09:41:04;;;;;;;17.73;2.70;;;;;;;;;;5070926;28;20048;-77
2022/01/28 09:43:30;;;;;;;19.98;3.03;;;;;;;;;;5053401;28;20124;-78
2022/01/28 09:45:56;;;;;;;20.42;2.92;;;;;;;;;;5071070;28;20049;-77
2022/01/28 09:48:23;;;;;;;20.08;3.42;;;;;;;;;;5071985;28;20036;-77
2022/01/28 09:50:50;;;;;;;18.63;2.92;;;;;;;;;;5053392;28;20067;-77
2022/01/28 09:53:17;;;;;;;25.00;4.07;;;;;;;;;;5071054;28;20572;-77
2022/01/28 09:55:45;;;;;;;18.98;3.92;;;;;;;;;;5070530;28;20048;-77
2022/01/28 09:58:12;;;;;;;20.60;3.83;;;;;;;;;;5070208;28;20052;-77
2022/01/28 10:00:38;;;;;;;21.50;4.10;;;;;;;;;;5070090;28;20485;-77
2022/01/28 10:03:08;;;;;;;21.23;3.58;;;;;;;;;;5070790;28;20178;-77
2022/01/28 10:05:36;;;;;;;24.65;3.75;;;;;;;;;;5053313;28;20062;-77
2022/01/28 10:08:10;;;;;;;20.15;3.92;;;;;;;;;;5068869;28;20036;-77
2022/01/28 10:10:47;;;;;;;24.27;3.13;;;;;;;;;;5052895;28;20036;-77
2022/01/28 10:13:18;;;;;;;24.23;2.60;;;;;;;;;;5070537;28;20093;-77
2022/01/28 10:15:53;;;;;;;19.88;3.00;;;;;;;;;;5071104;28;20493;-77
2022/01/28 10:18:19;;;;;;;21.85;2.90;;;;;;;;;;5053592;28;20078;-77
2022/01/28 10:20:45;;;;;;;19.95;3.50;;;;;;;;;;5053305;28;20057;-77
2022/01/28 10:23:14;;;;;;;13.38;3.05;;;;;;;;;;5069623;28;20056;-77
2022/01/28 10:25:42;;;;;;;15.00;2.50;;;;;;;;;;5069642;28;20051;-77
2022/01/28 10:28:12;;;;;;;18.55;2.42;;;;;;;;;;5053346;28;20396;-77
2022/01/28 10:30:40;;;;;;;16.35;2.90;;;;;;;;;;5069653;28;20047;-77
2022/01/28 10:33:24;;;;;;;20.20;2.58;;;;;;;;;;5069832;28;20044;-77
2022/01/28 10:35:55;;;;;;;16.80;2.55;;;;;;;;;;5069333;28;20127;-77
2022/01/28 10:38:31;;;;;;;24.23;2.92;;;;;;;;;;5069402;28;20068;-77
2022/01/28 10:41:07;;;;;;;17.20;3.10;;;;;;;;;;5069596;28;20045;-77
2022/01/28 10:43:33;;;;;;;16.20;2.78;;;;;;;;;;5069833;28;20488;-77
2022/01/28 10:46:05;;;;;;;29.08;3.30;;;;;;;;;;5053068;28;20127;-77
2022/01/28 10:48:31;;;;;;;17.63;4.03;;;;;;;;;;5069591;28;20056;-77
2022/01/28 10:50:58;;;;;;;19.42;2.80;;;;;;;;;;5052844;28;20048;-77
2022/01/28 10:53:27;;;;;;;18.23;3.00;;;;;;;;;;5069490;28;20048;-77
2022/01/28 10:55:57;;;;;;;21.13;2.90;;;;;;;;;;5068925;28;20067;-78
2022/01/28 10:58:28;;;;;;;17.73;2.38;;;;;;;;;;5070456;28;20040;-78
2022/01/28 11:00:57;;;;;;;18.17;3.15;;;;;;;;;;5052059;28;20037;-77
2022/01/28 11:03:26;;;;;;;15.52;3.17;;;;;;;;;;5069299;28;20124;-77
2022/01/28 11:06:02;;;;;;;22.35;3.00;;;;;;;;;;5068929;28;20055;-77
2022/01/28 11:08:29;;;;;;;17.15;2.88;;;;;;;;;;5069079;28;20046;-78
2022/01/28 11:10:56;;;;;;;16.48;3.10;;;;;;;;;;5068363;28;20051;-78
2022/01/28 11:13:22;;;;;;;19.75;3.13;;;;;;;;;;5069436;28;20461;-77
2022/01/28 11:15:48;;;;;;;36.65;5.30;;;;;;;;;;5068878;28;20434;-77
2022/01/28 11:18:15;;;;;;;21.45;3.42;;;;;;;;;;5068500;28;20072;-77
2022/01/28 11:21:04;;;;;;;17.80;2.67;;;;;;;;;;5068321;28;20086;-77
2022/01/28 11:23:33;;;;;;;18.10;2.67;;;;;;;;;;5068565;28;20059;-77
2022/01/28 11:26:18;;;;;;;17.15;2.65;;;;;;;;;;5068595;28;20041;-77
2022/01/28 11:28:46;;;;;;;21.92;2.80;;;;;;;;;;5051629;28;20044;-77
2022/01/28 11:31:13;;;;;;;15.27;3.10;;;;;;;;;;5068419;28;20036;-77
2022/01/28 11:33:49;;;;;;;21.27;2.70;;;;;;;;;;5068235;28;20131;-77
2022/01/28 11:36:15;;;;;;;;;;;;;;;;;;5069210;28;20052;-77
2022/01/28 11:38:45;;;;;;;26.63;3.33;;;;;;;;;;5068200;28;19920;-77
2022/01/28 11:41:13;;;;;;;17.63;2.60;;;;;;;;;;5068631;28;20051;-77
2022/01/28 11:43:47;;;;;;;18.33;2.95;;;;;;;;;;5068115;28;20396;-77
2022/01/28 11:46:20;;;;;;;22.52;3.13;;;;;;;;;;5069821;28;20396;-77
2022/01/28 11:48:53;;;;;;;17.98;2.70;;;;;;;;;;5051775;28;20054;-77
2022/01/28 11:51:20;;;;;;;15.57;2.60;;;;;;;;;;5068103;28;20041;-77
2022/01/28 11:53:59;;;;;;;25.17;3.05;;;;;;;;;;5051847;28;20055;-77
2022/01/28 11:56:26;;;;;;;14.23;2.15;;;;;;;;;;5068355;28;20044;-78
2022/01/28 11:59:07;;;;;;;19.63;3.03;;;;;;;;;;5068057;28;20098;-77
2022/01/28 12:01:36;;;;;;;23.65;3.00;;;;;;;;;;5051320;28;20052;-77
2022/01/28 12:04:21;;;;;;;26.92;2.88;;;;;;;;;;5068280;28;20048;-77
2022/01/28 12:06:50;;;;;;;17.85;2.78;;;;;;;;;;5068233;28;20605;-77
2022/01/28 12:09:17;;;;;;;19.67;2.75;;;;;;;;;;5051558;28;20094;-78
2022/01/28 12:11:44;;;;;;;22.60;3.00;;;;;;;;;;5067890;28;20041;-77
2022/01/28 12:14:13;;;;;;;17.50;2.65;;;;;;;;;;5068147;28;20124;-77
2022/01/28 12:16:45;;;;;;;19.08;2.38;;;;;;;;;;5067772;28;20075;-77
2022/01/28 12:19:18;;;;;;;21.42;2.50;;;;;;;;;;5068018;28;20154;-77
2022/01/28 12:22:03;;;;;;;19.15;3.47;;;;;;;;;;5067196;28;20056;-77
2022/01/28 12:24:30;;;;;;;17.38;2.88;;;;;;;;;;5069337;28;20045;-77
2022/01/28 12:27:07;;;;;;;20.55;2.70;;;;;;;;;;5067596;28;20464;-77
2022/01/28 12:29:34;;;;;;;19.27;2.63;;;;;;;;;;5067439;28;20127;-77
2022/01/28 12:32:00;;;;;;;17.25;2.58;;;;;;;;;;5050816;28;20361;-77
2022/01/28 12:34:26;;;;;;;17.83;2.25;;;;;;;;;;5067671;28;20253;-77
2022/01/28 12:36:56;;;;;;;24.08;2.60;;;;;;;;;;5067657;28;20097;-77
2022/01/28 12:40:13;;;;;;;14.32;2.63;;;;;;;;;;5068212;28;20123;-77
2022/01/28 12:42:23;;;;;;;11.70;2.08;;;;;;;;;;5061717;28;20052;-77
2022/01/28 12:44:53;;;;;;;21.40;2.92;;;;;;;;;;5067201;28;20048;-77
2022/01/28 12:47:20;;;;;;;20.60;3.05;;;;;;;;;;5067854;28;20051;-78
2022/01/28 12:49:53;;;;;;;17.10;2.53;;;;;;;;;;5067140;28;20047;-77
2022/01/28 12:52:19;;;;;;;15.18;2.05;;;;;;;;;;5067548;28;20119;-78
2022/01/28 12:54:46;;;;;;;23.58;3.20;;;;;;;;;;5051082;28;20587;-78
2022/01/28 12:57:17;;;;;;;14.38;2.58;;;;;;;;;;5050651;28;20171;-77
2022/01/28 12:59:45;;;;;;;13.68;2.60;;;;;;;;;;5067782;28;20048;-77
2022/01/28 13:02:11;;;;;;;14.65;2.50;;;;;;;;;;5067609;28;20044;-78
2022/01/28 13:09:53;;;;;;;18.17;3.28;;;;;;;;;;5067345;28;20047;-77
2022/01/28 13:12:29;;;;;;;18.42;2.70;;;;;;;;;;5067378;28;20130;-78
2022/01/28 13:15:03;;;;;;;18.20;2.35;;;;;;;;;;5067453;28;20511;-78
2022/01/28 13:17:29;;;;;;;19.80;2.60;;;;;;;;;;5067404;28;20036;-78
2022/01/28 13:19:55;;;;;;;16.75;3.08;;;;;;;;;;5067595;28;20488;-77
2022/01/28 13:22:25;;;;;;;13.18;2.75;;;;;;;;;;5050197;28;20064;-77
2022/01/28 13:24:52;;;;;;;18.95;2.67;;;;;;;;;;5067871;28;20114;-78
2022/01/28 13:27:19;;;;;;;18.13;2.92;;;;;;;;;;5066821;28;20041;-77
2022/01/28 13:29:48;;;;;;;15.80;2.28;;;;;;;;;;5066781;28;20051;-77
2022/01/28 13:32:22;;;;;;;14.55;2.33;;;;;;;;;;5067007;28;20041;-77
2022/01/28 13:34:49;;;;;;;23.00;2.60;;;;;;;;;;5067138;28;20483;-77
2022/01/28 13:37:31;;;;;;;17.00;2.10;;;;;;;;;;5067214;28;20040;-77
2022/01/28 13:39:57;;;;;;;15.25;2.00;;;;;;;;;;5066765;28;20052;-77
2022/01/28 13:42:24;;;;;;;10.35;1.85;;;;;;;;;;5070907;28;20046;-77
2022/01/28 13:44:50;;;;;;;11.90;1.88;;;;;;;;;;5070205;28;20048;-77
2022/01/28 13:47:17;;;;;;;15.50;3.20;;;;;;;;;;5054163;28;20055;-77
2022/01/28 13:49:44;;;;;;;12.57;2.33;;;;;;;;;;5070195;28;20066;-77
2022/01/28 13:52:18;;;;;;;15.48;2.35;;;;;;;;;;5070406;28;20055;-77
2022/01/28 13:54:45;;;;;;;16.20;2.47;;;;;;;;;;5053628;28;20484;-77
2022/01/28 13:57:11;;;;;;;19.50;1.98;;;;;;;;;;5054210;28;20045;-77
2022/01/28 13:59:41;;;;;;;15.07;1.83;;;;;;;;;;5070555;28;20056;-77
2022/01/28 14:02:15;;;;;;;19.77;2.13;;;;;;;;;;5053759;28;20527;-77
2022/01/28 14:04:42;;;;;;;13.23;2.35;;;;;;;;;;5069641;28;20051;-77
2022/01/28 14:07:10;;;;;;;12.45;1.60;;;;;;;;;;5053299;28;20051;-77
2022/01/28 14:09:43;;;;;;;14.95;1.88;;;;;;;;;;5070260;28;20052;-77
2022/01/28 14:12:11;;;;;;;17.10;2.22;;;;;;;;;;5070129;28;20080;-77
2022/01/28 14:14:45;;;;;;;12.60;1.80;;;;;;;;;;5070107;28;20044;-77
2022/01/28 14:17:11;;;;;;;14.32;2.13;;;;;;;;;;5070570;28;20500;-77
2022/01/28 14:19:38;;;;;;;12.38;1.85;;;;;;;;;;5069958;28;20051;-77
2022/01/28 14:22:08;;;;;;;15.35;1.70;;;;;;;;;;5069593;28;20515;-77
2022/01/28 14:24:35;;;;;;;14.88;1.85;;;;;;;;;;5069865;28;20045;-77
2022/01/28 14:29:48;;;;;;;17.92;2.70;;;;;;;;;;5069854;28;20048;-77
2022/01/28 14:32:18;;;;;;;19.08;2.60;;;;;;;;;;5070929;28;20036;-77
2022/01/28 14:34:45;;;;;;;21.02;2.15;;;;;;;;;;5069545;28;20492;-77
2022/01/28 14:37:11;;;;;;;11.85;2.10;;;;;;;;;;5053096;28;20048;-77
2022/01/28 14:39:38;;;;;;;12.23;2.17;;;;;;;;;;5053098;28;20480;-77
2022/01/28 14:42:05;;;;;;;22.48;2.83;;;;;;;;;;5070832;28;20060;-77
2022/01/28 14:44:32;;;;;;;11.93;2.25;;;;;;;;;;5069538;28;20048;-77
2022/01/28 14:46:58;;;;;;;9.15;2.03;;;;;;;;;;5069501;28;20051;-77
2022/01/28 14:49:24;;;;;;;15.88;2.10;;;;;;;;;;5069486;28;20036;-77
2022/01/28 14:51:53;;;;;;;16.85;2.58;;;;;;;;;;5052392;28;20048;-77
2022/01/28 14:54:22;;;;;;;19.05;2.60;;;;;;;;;;5068535;28;20040;-77
2022/01/28 14:56:48;;;;;;;13.80;2.47;;;;;;;;;;5052724;28;20503;-77
2022/01/28 14:59:14;;;;;;;13.35;2.00;;;;;;;;;;5069234;28;20691;-77
2022/01/28 15:01:40;;;;;;;13.75;2.50;;;;;;;;;;5068740;28;20078;-77
2022/01/28 15:04:06;;;;;;;13.40;2.20;;;;;;;;;;5068848;28;20033;-77
2022/01/28 15:06:32;;;;;;;14.80;2.50;;;;;;;;;;5069114;28;20040;-77
2022/01/28 15:09:01;;;;;;;17.90;2.80;;;;;;;;;;5036272;28;20033;-77
2022/01/28 15:11:49;;;;;;;14.02;3.28;;;;;;;;;;5069262;28;20087;-77
2022/01/28 15:14:20;;;;;;;18.60;3.63;;;;;;;;;;5068600;28;20377;-77
2022/01/28 15:16:46;;;;;;;21.42;5.10;;;;;;;;;;5068971;28;20089;-77
2022/01/28 15:19:12;;;;;;;20.58;5.07;;;;;;;;;;5052205;28;20040;-77
2022/01/28 15:21:39;;;;;;;20.58;5.20;;;;;;;;;;5068046;28;20060;-77
2022/01/28 15:24:06;;;;;;;19.10;5.28;;;;;;;;;;5068979;28;20060;-77
2022/01/28 15:26:32;;;;;;;25.67;6.13;;;;;;;;;;5069937;28;20045;-77
2022/01/28 15:29:02;;;;;;;22.13;5.90;;;;;;;;;;5068133;28;20097;-77
2022/01/28 15:36:58;;;;;;;22.45;5.43;;;;;;;;;;5067411;28;20045;-77
2022/01/28 15:39:24;;;;;;;22.23;6.60;;;;;;;;;;5068964;28;20049;-77
2022/01/28 15:41:52;;;;;;;21.58;6.20;;;;;;;;;;5067831;28;20044;-77
2022/01/28 15:44:18;;;;;;;24.17;7.40;;;;;;;;;;5068280;28;20044;-77
2022/01/28 15:46:44;;;;;;;27.27;7.57;;;;;;;;;;5069269;28;20046;-77
2022/01/28 15:49:12;;;;;;;24.45;7.20;;;;;;;;;;5068706;28;20037;-77
2022/01/28 15:51:38;;;;;;;24.95;7.10;;;;;;;;;;5067818;28;20129;-77
2022/01/28 15:54:04;;;;;;;23.75;7.03;;;;;;;;;;5035427;28;20044;-77
2022/01/28 15:56:30;;;;;;;19.17;5.75;;;;;;;;;;5068006;28;20399;-77
2022/01/28 15:58:56;;;;;;;18.25;4.38;;;;;;;;;;5067542;28;20044;-77
2022/01/28 16:01:22;;;;;;;16.30;3.58;;;;;;;;;;5051744;28;20393;-77
2022/01/28 16:03:49;;;;;;;12.38;3.80;;;;;;;;;;5067312;28;20123;-77
2022/01/28 16:06:15;;;;;;;12.57;4.50;;;;;;;;;;5067892;28;20109;-77
2022/01/28 16:08:42;;;;;;;16.73;4.75;;;;;;;;;;5067833;28;20079;-77